Don Quichotte — ZDPZ8 — position and weather

sailwx.info

Track history (hours):
 
Tides and Currents Weather Stations Pressure Air Temp Water Temp Dewpoint Dewpoint Depression Visibility Wind Speed Wind Dir Waves Ship Positions

Don Quichotte

Last reported at 2018-Mar-25 14:52 UTC. Time now 2018-Apr-24 05:08 UTC.
Position N 37°48' E 023°40'.
Warning: this ship's position is 29 days out of date.

Type: Sailing vessel. MMSI: 236112243.

Date/timePositionNaut miles runAvg speedWind from/ knotsBaromVisibWave heightAir tempDewpointWater temp
2018-Mar-25 14:52N 37°48' E 023°40'2 6.7
2018-Mar-25 14:30N 37°50' E 023°40'3 6.9
2018-Mar-25 14:00N 37°54' E 023°40'2 3.6
2018-Mar-25 13:30N 37°56' E 023°40'7 9.1
2018-Mar-25 12:42N 37°48' E 023°39'2 0.0
2018-Mar-23 15:29N 37°47' E 023°39'4 7.7
2018-Mar-23 15:00N 37°50' E 023°40'4 7.5
2018-Mar-23 14:30N 37°54' E 023°40'2 4.1
2018-Mar-23 14:00N 37°56' E 023°40'0 0.3
2018-Mar-23 12:35N 37°56' E 023°40'1 6.3
2018-Mar-23 12:30N 37°56' E 023°39'3 6.3
2018-Mar-23 12:00N 37°54' E 023°36'4 5.9
2018-Mar-23 11:25N 37°53' E 023°31'2 3.3
2018-Mar-23 10:55N 37°52' E 023°31'1 1.8
2018-Mar-23 10:30N 37°52' E 023°32'  
2018-Mar-20 13:10N 37°06' E 025°42'1 8.3
2018-Mar-20 13:00N 37°06' E 025°40'3 6.6
2018-Mar-20 12:30N 37°04' E 025°37'15 5.3
2018-Mar-20 09:45N 36°59' E 025°20'2 8.7
2018-Mar-20 09:30N 37°01' E 025°19'4 7.2
2018-Mar-20 09:00N 37°05' E 025°19'4 8.6
2018-Mar-20 08:30N 37°09' E 025°18'2 0.1
2018-Mar-19 13:36N 37°09' E 025°14'1 6.0
2018-Mar-19 13:30N 37°09' E 025°15'2 3.8
2018-Mar-19 13:00N 37°11' E 025°16'3 5.9
2018-Mar-19 12:30N 37°12' E 025°20'2 5.0
2018-Mar-19 12:00N 37°14' E 025°21'3 6.5
2018-Mar-19 11:30N 37°17' E 025°19'4 7.8
2018-Mar-19 11:00N 37°21' E 025°18'4 7.6
2018-Mar-19 10:28N 37°25' E 025°17'5 8.5
2018-Mar-19 09:56N 37°26' E 025°11'  
Track history (hours):
 
Tides and Currents Weather Stations Pressure Air Temp Water Temp Dewpoint Dewpoint Depression Visibility Wind Speed Wind Dir Waves Ship Positions

Don Quichotte

Last reported at 2018-Mar-25 14:52 UTC. Time now 2018-Apr-24 05:08 UTC.
Position N 37°48' E 023°40'.
Warning: this ship's position is 29 days out of date.

Type: Sailing vessel. MMSI: 236112243.

Date/timePositionNaut miles runAvg speedWind from/ knotsBaromVisibWave heightAir tempDewpointWater temp
2018-Mar-25 14:52N 37°48' E 023°40'2 6.7
2018-Mar-25 14:30N 37°50' E 023°40'3 6.9
2018-Mar-25 14:00N 37°54' E 023°40'2 3.6
2018-Mar-25 13:30N 37°56' E 023°40'7 9.1
2018-Mar-25 12:42N 37°48' E 023°39'2 0.0
2018-Mar-23 15:29N 37°47' E 023°39'4 7.7
2018-Mar-23 15:00N 37°50' E 023°40'4 7.5
2018-Mar-23 14:30N 37°54' E 023°40'2 4.1
2018-Mar-23 14:00N 37°56' E 023°40'0 0.3
2018-Mar-23 12:35N 37°56' E 023°40'1 6.3
2018-Mar-23 12:30N 37°56' E 023°39'3 6.3
2018-Mar-23 12:00N 37°54' E 023°36'4 5.9
2018-Mar-23 11:25N 37°53' E 023°31'2 3.3
2018-Mar-23 10:55N 37°52' E 023°31'1 1.8
2018-Mar-23 10:30N 37°52' E 023°32'  
2018-Mar-20 13:10N 37°06' E 025°42'1 8.3
2018-Mar-20 13:00N 37°06' E 025°40'3 6.6
2018-Mar-20 12:30N 37°04' E 025°37'15 5.3
2018-Mar-20 09:45N 36°59' E 025°20'2 8.7
2018-Mar-20 09:30N 37°01' E 025°19'4 7.2
2018-Mar-20 09:00N 37°05' E 025°19'4 8.6
2018-Mar-20 08:30N 37°09' E 025°18'2 0.1
2018-Mar-19 13:36N 37°09' E 025°14'1 6.0
2018-Mar-19 13:30N 37°09' E 025°15'2 3.8
2018-Mar-19 13:00N 37°11' E 025°16'3 5.9
2018-Mar-19 12:30N 37°12' E 025°20'2 5.0
2018-Mar-19 12:00N 37°14' E 025°21'3 6.5
2018-Mar-19 11:30N 37°17' E 025°19'4 7.8
2018-Mar-19 11:00N 37°21' E 025°18'4 7.6
2018-Mar-19 10:28N 37°25' E 025°17'5 8.5
2018-Mar-19 09:56N 37°26' E 025°11'  

Dump ship's entire track history